createdAt,value
2019-05-17T00:00:07.765Z,101181.22
2019-05-17T00:02:37.365Z,101184.47
2019-05-17T00:05:07.884Z,101187.52
2019-05-17T00:07:36.867Z,101184.47
2019-05-17T00:10:07.640Z,101183.42
2019-05-17T00:12:36.864Z,101182.23
2019-05-17T00:15:07.575Z,101182.75
2019-05-17T00:17:37.695Z,101180.38
2019-05-17T00:20:07.973Z,101175.61
2019-05-17T00:22:36.707Z,101173.73
2019-05-17T00:25:09.020Z,101167.75
2019-05-17T00:27:38.190Z,101174.62
2019-05-17T00:30:10.125Z,101179.03
2019-05-17T00:32:38.599Z,101174.10
2019-05-17T00:35:07.578Z,101170.85
2019-05-17T00:37:37.258Z,101166.27
2019-05-17T00:40:08.018Z,101164.23
2019-05-17T00:42:37.198Z,101168.02
2019-05-17T00:45:07.743Z,101162.36
2019-05-17T00:47:37.471Z,101158.27
2019-05-17T00:50:07.607Z,101153.13
2019-05-17T00:52:36.800Z,101150.92
2019-05-17T00:55:06.926Z,101144.84
2019-05-17T00:57:36.936Z,101144.31
2019-05-17T01:00:08.564Z,101153.02
2019-05-17T01:02:37.295Z,101148.08
2019-05-17T01:05:11.647Z,101141.27
2019-05-17T01:07:40.048Z,101144.84
2019-05-17T01:10:09.123Z,101144.52
2019-05-17T01:12:37.601Z,101140.42
2019-05-17T01:15:08.359Z,101142.80
2019-05-17T01:17:36.791Z,101140.59
2019-05-17T01:20:08.171Z,101134.09
2019-05-17T01:22:36.874Z,101138.54
2019-05-17T01:25:07.490Z,101138.86
2019-05-17T01:27:37.981Z,101137.50
2019-05-17T01:30:07.450Z,101137.81
2019-05-17T01:32:37.478Z,101136.66
2019-05-17T01:35:07.500Z,101134.45
2019-05-17T01:37:37.131Z,101137.50
2019-05-17T01:40:06.955Z,101136.13
2019-05-17T01:42:37.398Z,101134.09
2019-05-17T01:45:09.051Z,101139.55
2019-05-17T01:47:37.485Z,101131.89
2019-05-17T01:50:08.928Z,101132.73
2019-05-17T01:52:37.362Z,101135.46
2019-05-17T01:55:07.608Z,101132.42
2019-05-17T01:57:37.121Z,101128.84
2019-05-17T02:00:10.020Z,101127.80
2019-05-17T02:02:40.232Z,101136.50
2019-05-17T02:05:09.796Z,101126.96
2019-05-17T02:07:38.236Z,101131.58
2019-05-17T02:10:09.864Z,101121.72
2019-05-17T02:12:38.301Z,101127.69
2019-05-17T02:15:08.714Z,101135.34
2019-05-17T02:17:37.501Z,101136.50
2019-05-17T02:20:08.105Z,101132.94
2019-05-17T02:22:36.887Z,101133.78
2019-05-17T02:25:09.928Z,101132.73
2019-05-17T02:27:43.952Z,101135.14
2019-05-17T02:30:13.587Z,101129.38
2019-05-17T02:32:43.212Z,101129.89
2019-05-17T02:35:14.470Z,101127.48
2019-05-17T02:37:43.300Z,101123.92
2019-05-17T02:40:14.677Z,101126.96
2019-05-17T02:42:43.220Z,101128.84
2019-05-17T02:45:13.813Z,101122.88
2019-05-17T02:47:43.633Z,101123.19
2019-05-17T02:50:13.768Z,101122.35
2019-05-17T02:52:43.530Z,101118.47
2019-05-17T02:55:13.662Z,101118.78
2019-05-17T02:57:43.320Z,101116.38
2019-05-17T03:00:13.739Z,101114.00
2019-05-17T03:02:43.921Z,101120.09
2019-05-17T03:05:13.156Z,101114.11
2019-05-17T03:07:43.856Z,101117.36
2019-05-17T03:10:22.976Z,101114.64
2019-05-17T03:12:44.471Z,101119.39
2019-05-17T03:15:13.166Z,101110.38
2019-05-17T03:17:43.508Z,101118.87
2019-05-17T03:20:13.467Z,101111.53
2019-05-17T03:22:44.021Z,101114.58
2019-05-17T03:25:14.117Z,101119.02
2019-05-17T03:27:43.421Z,101119.02
2019-05-17T03:30:17.460Z,101111.68
2019-05-17T03:32:47.355Z,101109.80
2019-05-17T03:35:16.681Z,101104.86
2019-05-17T03:37:44.125Z,101104.34
2019-05-17T03:40:24.842Z,101106.86
2019-05-17T03:42:43.232Z,101108.23
2019-05-17T03:45:13.825Z,101116.93
2019-05-17T03:47:44.344Z,101112.14
2019-05-17T03:50:13.989Z,101117.91
2019-05-17T03:52:44.296Z,101126.41
2019-05-17T03:55:13.535Z,101119.42
2019-05-17T03:57:44.085Z,101121.11
2019-05-17T04:00:14.458Z,101119.22
2019-05-17T04:02:44.390Z,101126.04
2019-05-17T04:05:13.358Z,101130.80
2019-05-17T04:07:43.380Z,101130.59
2019-05-17T04:10:15.130Z,101132.80
2019-05-17T04:12:44.073Z,101136.05
2019-05-17T04:15:14.920Z,101137.03
2019-05-17T04:17:44.265Z,101129.52
2019-05-17T04:20:14.049Z,101126.59
2019-05-17T04:22:44.232Z,101126.06
2019-05-17T04:25:14.011Z,101125.86
2019-05-17T04:27:43.920Z,101124.12
2019-05-17T04:30:14.405Z,101117.23
2019-05-17T04:32:44.344Z,101114.80
2019-05-17T04:35:13.760Z,101117.91
2019-05-17T04:37:44.397Z,101119.36
2019-05-17T04:40:14.239Z,101118.06
2019-05-17T04:42:44.176Z,101124.37
2019-05-17T04:45:13.519Z,101129.16
2019-05-17T04:47:44.104Z,101122.66
2019-05-17T04:50:13.511Z,101126.89
2019-05-17T04:52:43.040Z,101127.03
2019-05-17T04:55:13.715Z,101124.09
2019-05-17T04:57:44.011Z,101122.20
2019-05-17T05:00:13.416Z,101121.25
2019-05-17T05:02:43.759Z,101125.66
2019-05-17T05:05:14.415Z,101117.61
2019-05-17T05:07:43.716Z,101120.98
2019-05-17T05:10:13.707Z,101125.21
2019-05-17T05:12:43.471Z,101125.45
2019-05-17T05:15:13.528Z,101119.54
2019-05-17T05:17:42.783Z,101117.47
2019-05-17T05:20:13.121Z,101116.42
2019-05-17T05:22:42.898Z,101116.62
2019-05-17T05:25:12.854Z,101112.84
2019-05-17T05:27:42.695Z,101102.66
2019-05-17T05:30:12.099Z,101108.17
2019-05-17T05:32:42.785Z,101103.20
2019-05-17T05:35:12.585Z,101100.16
2019-05-17T05:37:42.226Z,101102.36
2019-05-17T05:40:12.650Z,101100.37
2019-05-17T05:42:42.539Z,101099.39
2019-05-17T05:45:12.195Z,101101.13
2019-05-17T05:47:41.813Z,101099.41
2019-05-17T05:50:12.471Z,101098.88
2019-05-17T05:52:42.381Z,101101.30
2019-05-17T05:55:12.259Z,101104.75
2019-05-17T05:57:41.900Z,101100.03
2019-05-17T06:00:12.934Z,101102.45
2019-05-17T06:02:42.079Z,101091.67
2019-05-17T06:05:14.742Z,101092.18
2019-05-17T06:07:41.803Z,101091.80
2019-05-17T06:10:12.965Z,101097.87
2019-05-17T06:12:43.518Z,101094.65
2019-05-17T06:15:12.699Z,101095.05
2019-05-17T06:17:42.850Z,101098.75
2019-05-17T06:20:12.571Z,101102.14
2019-05-17T06:22:42.941Z,101102.37
2019-05-17T06:25:14.792Z,101103.48
2019-05-17T06:27:41.815Z,101100.16
2019-05-17T06:30:12.798Z,101103.20
2019-05-17T06:32:43.271Z,101107.48
2019-05-17T06:35:12.734Z,101101.96
2019-05-17T06:37:42.255Z,101102.34
2019-05-17T06:40:13.145Z,101103.23
2019-05-17T06:42:45.268Z,101096.00
2019-05-17T06:45:12.639Z,101090.20
2019-05-17T06:47:42.563Z,101086.91
2019-05-17T06:50:14.340Z,101087.81
2019-05-17T06:52:43.510Z,101083.91
2019-05-17T06:55:12.878Z,101077.72
2019-05-17T06:57:43.298Z,101071.28
2019-05-17T07:00:18.240Z,101077.77
2019-05-17T07:02:42.066Z,101078.60
2019-05-17T07:05:12.208Z,101068.54
2019-05-17T07:07:40.700Z,101061.22
2019-05-17T07:10:11.105Z,101060.09
2019-05-17T07:12:54.553Z,101052.17
2019-05-17T07:15:10.836Z,101051.92
2019-05-17T07:17:39.975Z,101048.16
2019-05-17T07:20:10.289Z,101042.67
2019-05-17T07:22:40.772Z,101042.56
2019-05-17T07:25:10.865Z,101045.05
2019-05-17T07:27:44.670Z,101044.65
2019-05-17T07:30:10.122Z,101048.26
2019-05-17T07:32:40.700Z,101042.52
2019-05-17T07:35:10.781Z,101031.66
2019-05-17T07:37:40.143Z,101034.32
2019-05-17T07:40:10.806Z,101030.80
2019-05-17T07:42:39.885Z,101026.83
2019-05-17T07:45:10.182Z,101026.89
2019-05-17T07:47:40.376Z,101031.70
2019-05-17T07:50:11.222Z,101037.37
2019-05-17T07:52:39.995Z,101031.66
2019-05-17T07:55:10.956Z,101039.85
2019-05-17T07:57:40.851Z,101034.32
2019-05-17T08:00:10.925Z,101034.20
2019-05-17T08:02:40.140Z,101023.59
2019-05-17T08:05:10.125Z,101029.45
2019-05-17T08:07:40.472Z,101027.84
2019-05-17T08:10:10.870Z,101028.02
2019-05-17T08:12:40.672Z,101023.34
2019-05-17T08:15:10.797Z,101024.00
2019-05-17T08:17:39.952Z,101013.92
2019-05-17T08:20:10.379Z,101008.72
2019-05-17T08:22:39.858Z,101019.17
2019-05-17T08:25:10.339Z,101021.13
2019-05-17T08:27:40.474Z,101022.85
2019-05-17T08:30:10.706Z,101023.89
2019-05-17T08:32:40.242Z,101025.72
2019-05-17T08:35:11.276Z,101016.87
2019-05-17T08:37:42.218Z,101012.30
2019-05-17T08:40:10.761Z,101008.37
2019-05-17T08:42:40.662Z,101008.80
2019-05-17T08:45:09.819Z,101014.59
2019-05-17T08:47:39.607Z,101008.11
2019-05-17T08:50:10.936Z,101017.55
2019-05-17T08:52:40.263Z,101013.94
2019-05-17T08:55:09.725Z,101007.06
2019-05-17T08:57:40.037Z,100995.52
2019-05-17T09:00:10.697Z,100986.59
2019-05-17T09:02:40.877Z,100981.80
2019-05-17T09:05:10.459Z,100981.09
2019-05-17T09:07:40.084Z,100980.03
2019-05-17T09:10:09.991Z,100980.28
2019-05-17T09:12:41.059Z,100974.32
2019-05-17T09:15:10.003Z,100975.28
2019-05-17T09:17:39.594Z,100968.45
2019-05-17T09:20:10.940Z,100969.86
2019-05-17T09:22:39.967Z,100958.56
2019-05-17T09:25:13.540Z,100961.40
2019-05-17T09:27:40.000Z,100952.98
2019-05-17T09:30:09.527Z,100954.39
2019-05-17T09:32:40.304Z,100950.56
2019-05-17T09:35:10.020Z,100954.81
2019-05-17T09:37:40.973Z,100962.41
2019-05-17T09:40:09.402Z,100958.45
2019-05-17T09:42:40.828Z,100963.93
2019-05-17T09:45:09.603Z,100962.02
2019-05-17T09:47:39.684Z,100953.66
2019-05-17T09:50:09.871Z,100958.22
2019-05-17T09:52:40.604Z,100945.30
2019-05-17T09:55:09.942Z,100947.45
2019-05-17T09:57:40.801Z,100946.61
2019-05-17T10:00:09.997Z,100943.61
2019-05-17T10:02:40.165Z,100948.84
2019-05-17T10:05:10.743Z,100954.12
2019-05-17T10:07:40.233Z,100945.37
2019-05-17T10:10:10.459Z,100947.43
2019-05-17T10:12:40.433Z,100934.34
2019-05-17T10:15:10.091Z,100932.55
2019-05-17T10:17:38.751Z,100935.66
2019-05-17T10:20:07.576Z,100933.06
2019-05-17T10:22:36.003Z,100929.28
2019-05-17T10:25:06.314Z,100926.45
2019-05-17T10:27:34.679Z,100924.27
2019-05-17T10:30:04.223Z,100920.74
2019-05-17T10:32:32.587Z,100920.00
2019-05-17T10:35:00.971Z,100913.02
2019-05-17T10:37:30.277Z,100908.80
2019-05-17T10:39:58.966Z,100903.48
2019-05-17T10:42:30.394Z,100899.71
2019-05-17T10:44:59.757Z,100896.14
2019-05-17T10:47:29.918Z,100903.59
2019-05-17T10:49:57.668Z,100899.29
2019-05-17T10:52:26.050Z,100901.91
2019-05-17T10:54:54.425Z,100901.62
2019-05-17T10:57:22.787Z,100899.38
2019-05-17T10:59:51.174Z,100899.70
2019-05-17T11:02:19.812Z,100902.17
2019-05-17T11:04:50.584Z,100908.84
2019-05-17T11:07:19.915Z,100902.94
2019-05-17T11:09:50.809Z,100891.14
2019-05-17T11:12:18.641Z,100893.50
2019-05-17T11:14:55.993Z,100894.59
2019-05-17T11:17:17.116Z,100889.77
2019-05-17T11:19:45.522Z,100892.88
2019-05-17T11:22:13.949Z,100894.53
2019-05-17T11:24:42.348Z,100886.72
2019-05-17T11:27:10.734Z,100891.94
2019-05-17T11:29:39.124Z,100876.33
2019-05-17T11:32:07.522Z,100876.67
2019-05-17T11:34:35.895Z,100875.27
2019-05-17T11:37:04.288Z,100874.22
2019-05-17T11:39:32.734Z,100880.23
2019-05-17T11:42:01.123Z,100872.00
2019-05-17T11:44:29.508Z,100876.80
2019-05-17T11:46:57.895Z,100877.00
2019-05-17T11:49:26.260Z,100874.53
2019-05-17T11:51:54.653Z,100877.02
2019-05-17T11:54:23.017Z,100872.42
2019-05-17T11:56:51.403Z,100878.52
2019-05-17T11:59:19.783Z,100874.17
2019-05-17T12:01:48.182Z,100874.45
2019-05-17T12:04:16.557Z,100869.67
2019-05-17T12:06:44.974Z,100868.36
2019-05-17T12:09:13.331Z,100859.84
2019-05-17T12:11:41.727Z,100859.05
2019-05-17T12:14:10.138Z,100860.14
2019-05-17T12:16:38.569Z,100861.63
2019-05-17T12:19:07.046Z,100857.81
2019-05-17T12:21:35.551Z,100855.78
2019-05-17T12:24:04.032Z,100850.52
2019-05-17T12:26:32.549Z,100840.47
2019-05-17T12:29:01.027Z,100838.53
2019-05-17T12:31:29.456Z,100840.05
2019-05-17T12:33:57.865Z,100843.23
2019-05-17T12:36:26.560Z,100835.27
2019-05-17T12:38:54.981Z,100835.70
2019-05-17T12:41:23.405Z,100838.83
2019-05-17T12:43:51.823Z,100835.50
2019-05-17T12:46:20.232Z,100832.45
2019-05-17T12:48:48.664Z,100833.22
2019-05-17T12:51:17.079Z,100837.47
2019-05-17T12:53:50.362Z,100829.36
2019-05-17T12:56:18.803Z,100831.98
2019-05-17T12:58:47.299Z,100833.84
2019-05-17T13:01:15.698Z,100832.84
2019-05-17T13:03:44.142Z,100829.62
2019-05-17T13:06:12.538Z,100835.62
2019-05-17T13:08:41.059Z,100824.83
2019-05-17T13:11:09.470Z,100821.25
2019-05-17T13:13:37.903Z,100815.56
2019-05-17T13:16:17.382Z,100810.48
2019-05-17T13:18:36.541Z,100815.94
2019-05-17T13:21:05.014Z,100817.55
2019-05-17T13:23:33.431Z,100822.62
2019-05-17T13:26:01.839Z,100825.36
2019-05-17T13:28:30.273Z,100826.22
2019-05-17T13:30:58.728Z,100827.70
2019-05-17T13:33:29.249Z,100820.61
2019-05-17T13:35:57.361Z,100818.14
2019-05-17T13:38:25.793Z,100818.11
2019-05-17T13:40:54.208Z,100806.91
2019-05-17T13:43:22.645Z,100813.72
2019-05-17T13:45:51.046Z,100809.45
2019-05-17T13:48:19.486Z,100799.25
2019-05-17T13:50:51.644Z,100804.39
2019-05-17T13:53:18.123Z,100798.53
2019-05-17T13:55:46.654Z,100787.77
2019-05-17T13:58:15.072Z,100782.23
2019-05-17T14:00:43.531Z,100783.10
2019-05-17T14:03:11.915Z,100784.73
2019-05-17T14:05:40.344Z,100781.12
2019-05-17T14:08:08.817Z,100775.36
2019-05-17T14:10:37.263Z,100775.36
2019-05-17T14:13:05.673Z,100773.90
2019-05-17T14:15:34.099Z,100776.83
2019-05-17T14:18:02.516Z,100768.64
2019-05-17T14:20:30.940Z,100776.50
2019-05-17T14:22:59.348Z,100771.63
2019-05-17T14:25:27.783Z,100773.56
2019-05-17T14:27:56.579Z,100773.67
2019-05-17T14:30:25.496Z,100772.68
2019-05-17T14:32:53.903Z,100779.64
2019-05-17T14:35:22.343Z,100773.15
2019-05-17T14:37:50.748Z,100767.45
2019-05-17T14:40:19.354Z,100776.56
2019-05-17T14:42:47.754Z,100775.45
2019-05-17T14:45:16.199Z,100773.37
2019-05-17T14:47:44.604Z,100768.55
2019-05-17T14:50:13.174Z,100770.28
2019-05-17T14:52:41.586Z,100771.86
2019-05-17T14:55:10.086Z,100765.61
2019-05-17T14:57:38.496Z,100768.00
2019-05-17T15:00:07.267Z,100769.38
2019-05-17T15:02:35.675Z,100766.16
2019-05-17T15:05:05.458Z,100768.13
2019-05-17T15:07:33.870Z,100760.21
2019-05-17T15:10:02.421Z,100756.99
2019-05-17T15:12:30.881Z,100749.67
2019-05-17T15:14:59.319Z,100748.36
2019-05-17T15:17:27.772Z,100746.69
2019-05-17T15:19:56.213Z,100744.83
2019-05-17T15:22:24.823Z,100745.52
2019-05-17T15:24:53.232Z,100748.03
2019-05-17T15:27:21.654Z,100746.33
2019-05-17T15:29:50.066Z,100746.55
2019-05-17T15:32:18.510Z,100738.58
2019-05-17T15:34:46.908Z,100739.79
2019-05-17T15:37:15.416Z,100742.77
2019-05-17T15:39:43.841Z,100744.00
2019-05-17T15:42:12.403Z,100736.25
2019-05-17T15:44:40.812Z,100722.77
2019-05-17T15:47:09.287Z,100727.85
2019-05-17T15:49:37.834Z,100722.92
2019-05-17T15:52:06.330Z,100726.83
2019-05-17T15:54:34.735Z,100729.95
2019-05-17T15:57:03.178Z,100721.66
2019-05-17T15:59:31.588Z,100724.19
2019-05-17T16:02:00.025Z,100723.75
2019-05-17T16:04:28.441Z,100726.31
2019-05-17T16:06:56.943Z,100726.59
2019-05-17T16:09:25.387Z,100721.98
2019-05-17T16:11:53.810Z,100729.33
2019-05-17T16:14:22.220Z,100724.31
2019-05-17T16:16:50.676Z,100718.45
2019-05-17T16:19:19.090Z,100715.09
2019-05-17T16:21:47.489Z,100717.86
2019-05-17T16:24:15.925Z,100712.33
2019-05-17T16:26:44.334Z,100711.27
2019-05-17T16:29:13.578Z,100712.97
2019-05-17T16:31:41.989Z,100706.28
2019-05-17T16:34:10.420Z,100708.02
2019-05-17T16:36:38.831Z,100707.44
2019-05-17T16:39:08.479Z,100697.44
2019-05-17T16:41:37.171Z,100700.55
2019-05-17T16:44:05.608Z,100699.48
2019-05-17T16:46:34.038Z,100696.28
2019-05-17T16:49:28.571Z,100695.11
2019-05-17T16:51:57.038Z,100691.13
2019-05-17T16:54:25.618Z,100689.98
2019-05-17T16:57:00.056Z,100692.31
2019-05-17T16:59:28.664Z,100688.89
2019-05-17T17:01:57.143Z,100687.08
2019-05-17T17:04:25.577Z,100696.45
2019-05-17T17:06:53.982Z,100696.12
2019-05-17T17:09:22.424Z,100697.71
2019-05-17T17:11:50.857Z,100693.16
2019-05-17T17:14:19.287Z,100694.78
2019-05-17T17:16:47.696Z,100700.23
2019-05-17T17:19:16.130Z,100693.50
2019-05-17T17:21:44.543Z,100696.17
2019-05-17T17:24:12.964Z,100699.22
2019-05-17T17:26:41.374Z,100698.94
2019-05-17T17:29:09.872Z,100690.69
2019-05-17T17:31:38.280Z,100697.66
2019-05-17T17:34:06.715Z,100704.14
2019-05-17T17:36:35.129Z,100698.93
2019-05-17T17:39:05.574Z,100691.27
2019-05-17T17:41:33.975Z,100687.84
2019-05-17T17:44:02.431Z,100685.70
2019-05-17T17:46:31.104Z,100690.26
2019-05-17T17:48:59.514Z,100692.81
2019-05-17T17:51:28.020Z,100687.09
2019-05-17T17:53:56.485Z,100680.84
2019-05-17T17:56:24.925Z,100681.52
2019-05-17T17:58:53.334Z,100685.91
2019-05-17T18:01:21.776Z,100681.98
2019-05-17T18:03:50.264Z,100681.13
2019-05-17T18:06:18.767Z,100678.69
2019-05-17T18:08:47.176Z,100677.62
2019-05-17T18:11:15.619Z,100672.50
2019-05-17T18:13:44.027Z,100681.06
2019-05-17T18:16:12.466Z,100681.73
2019-05-17T18:18:40.874Z,100677.16
2019-05-17T18:21:09.307Z,100690.63
2019-05-17T18:23:37.729Z,100688.39
2019-05-17T18:26:06.313Z,100691.11
2019-05-17T18:28:34.721Z,100696.20
2019-05-17T18:31:03.234Z,100700.30
2019-05-17T18:33:31.636Z,100699.36
2019-05-17T18:36:00.140Z,100694.20
2019-05-17T18:38:29.718Z,100692.34
2019-05-17T18:40:58.156Z,100700.11
2019-05-17T18:43:26.640Z,100697.84
2019-05-17T18:45:55.073Z,100700.91
2019-05-17T18:48:23.488Z,100697.41
2019-05-17T18:50:51.928Z,100700.16
2019-05-17T18:53:20.721Z,100702.94
2019-05-17T18:55:49.377Z,100701.91
2019-05-17T18:58:17.782Z,100701.17
2019-05-17T19:00:46.589Z,100707.69
2019-05-17T19:03:15.006Z,100709.16
2019-05-17T19:05:45.250Z,100716.16
2019-05-17T19:08:13.597Z,100712.09
2019-05-17T19:10:42.013Z,100717.16
2019-05-17T19:13:10.451Z,100725.37
2019-05-17T19:15:38.857Z,100717.70
2019-05-17T19:18:07.374Z,100723.80
2019-05-17T19:20:35.780Z,100729.08
2019-05-17T19:23:04.230Z,100731.39
2019-05-17T19:25:32.636Z,100731.25
2019-05-17T19:28:01.076Z,100736.31
2019-05-17T19:30:29.559Z,100735.13
2019-05-17T19:32:58.015Z,100735.61
2019-05-17T19:35:26.509Z,100733.37
2019-05-17T19:37:54.942Z,100731.45
2019-05-17T19:40:23.378Z,100734.75
2019-05-17T19:42:51.818Z,100736.13
2019-05-17T19:45:20.502Z,100737.73
2019-05-17T19:47:49.011Z,100744.91
2019-05-17T19:50:17.663Z,100743.72
2019-05-17T19:52:46.474Z,100742.86
2019-05-17T19:55:14.956Z,100745.97
2019-05-17T19:57:43.395Z,100750.22
2019-05-17T20:00:12.443Z,100746.00
2019-05-17T20:02:40.881Z,100751.59
2019-05-17T20:05:09.637Z,100755.55
2019-05-17T20:07:39.418Z,100757.38
2019-05-17T20:10:09.054Z,100758.22
2019-05-17T20:12:37.497Z,100758.16
2019-05-17T20:15:17.477Z,100758.62
2019-05-17T20:17:37.625Z,100758.21
2019-05-17T20:20:09.566Z,100756.28
2019-05-17T20:22:38.136Z,100757.66
2019-05-17T20:25:07.218Z,100750.78
2019-05-17T20:27:35.854Z,100755.27
2019-05-17T20:30:09.541Z,100746.55
2019-05-17T20:32:38.011Z,100746.33
2019-05-17T20:35:07.667Z,100743.80
2019-05-17T20:37:36.125Z,100741.52
2019-05-17T20:40:06.388Z,100741.39
2019-05-17T20:42:34.805Z,100736.91
2019-05-17T20:45:04.291Z,100737.45
2019-05-17T20:47:32.709Z,100740.41
2019-05-17T20:50:01.150Z,100735.92
2019-05-17T20:52:29.640Z,100732.66
2019-05-17T20:54:58.081Z,100726.08
2019-05-17T20:57:26.497Z,100722.53
2019-05-17T20:59:54.942Z,100729.20
2019-05-17T21:02:23.361Z,100726.66
2019-05-17T21:04:51.818Z,100731.03
2019-05-17T21:07:20.227Z,100729.59
2019-05-17T21:09:48.664Z,100732.59
2019-05-17T21:12:17.076Z,100728.92
2019-05-17T21:14:45.515Z,100726.89
2019-05-17T21:17:13.931Z,100732.70
2019-05-17T21:19:42.453Z,100742.50
2019-05-17T21:22:10.866Z,100733.84
2019-05-17T21:24:39.328Z,100737.38
2019-05-17T21:27:07.716Z,100735.33
2019-05-17T21:29:36.147Z,100734.86
2019-05-17T21:32:04.557Z,100734.33
2019-05-17T21:34:32.997Z,100737.37
2019-05-17T21:37:01.404Z,100737.15
2019-05-17T21:39:29.845Z,100738.52
2019-05-17T21:42:14.779Z,100733.03
2019-05-17T21:44:44.270Z,100731.03
2019-05-17T21:47:12.679Z,100734.25
2019-05-17T21:49:41.112Z,100733.41
2019-05-17T21:52:09.598Z,100741.66
2019-05-17T21:54:38.036Z,100738.91
2019-05-17T21:57:06.737Z,100739.13
2019-05-17T21:59:35.171Z,100732.25
2019-05-17T22:02:03.652Z,100737.24
2019-05-17T22:04:32.092Z,100734.25
2019-05-17T22:07:00.504Z,100730.73
2019-05-17T22:09:28.939Z,100728.83
2019-05-17T22:11:59.879Z,100736.48
2019-05-17T22:14:28.303Z,100732.25
2019-05-17T22:16:56.787Z,100733.34
2019-05-17T22:19:25.201Z,100728.34
2019-05-17T22:21:53.641Z,100730.59
2019-05-17T22:24:22.061Z,100731.34
2019-05-17T22:26:50.504Z,100732.42
2019-05-17T22:29:18.913Z,100730.72
2019-05-17T22:31:47.344Z,100735.76
2019-05-17T22:34:15.770Z,100729.50
2019-05-17T22:36:44.207Z,100737.75
2019-05-17T22:39:12.621Z,100742.82
2019-05-17T22:41:41.058Z,100737.37
2019-05-17T22:44:09.540Z,100740.66
2019-05-17T22:46:37.982Z,100741.20
2019-05-17T22:49:06.459Z,100742.03
2019-05-17T22:51:34.928Z,100739.53
2019-05-17T22:54:03.340Z,100741.66
2019-05-17T22:56:31.788Z,100735.22
2019-05-17T22:59:00.195Z,100739.59
2019-05-17T23:01:28.643Z,100737.92
2019-05-17T23:03:57.066Z,100737.92
2019-05-17T23:06:25.496Z,100737.92
2019-05-17T23:08:53.931Z,100732.42
2019-05-17T23:11:22.376Z,100731.59
2019-05-17T23:13:50.788Z,100730.80
2019-05-17T23:16:19.233Z,100728.05
2019-05-17T23:19:05.192Z,100731.59
2019-05-17T23:21:33.647Z,100736.55
2019-05-17T23:24:02.075Z,100725.94
2019-05-17T23:26:30.517Z,100723.36
2019-05-17T23:28:58.928Z,100728.31
2019-05-17T23:31:27.366Z,100729.09
2019-05-17T23:33:55.783Z,100729.85
2019-05-17T23:36:24.226Z,100722.15
2019-05-17T23:38:52.642Z,100722.15
2019-05-17T23:41:21.049Z,100724.36
2019-05-17T23:43:49.553Z,100724.23
2019-05-17T23:46:17.969Z,100718.90
2019-05-17T23:48:46.412Z,100722.64
2019-05-17T23:51:14.828Z,100723.64
2019-05-17T23:53:43.266Z,100727.69
2019-05-17T23:56:11.678Z,100726.39
2019-05-17T23:58:40.123Z,100729.77
